createdAt,value
2023-12-18T00:00:52.885Z,0.00
2023-12-18T00:01:52.854Z,0.00
2023-12-18T00:02:52.821Z,0.00
2023-12-18T00:03:52.982Z,0.00
2023-12-18T00:04:52.776Z,0.00
2023-12-18T00:05:52.766Z,0.00
2023-12-18T00:06:52.761Z,0.00
2023-12-18T00:07:52.776Z,0.00
2023-12-18T00:08:52.760Z,0.00
2023-12-18T00:09:52.775Z,0.00
2023-12-18T00:10:52.762Z,0.00
2023-12-18T00:11:52.739Z,0.00
2023-12-18T00:12:52.734Z,0.00
2023-12-18T00:13:52.720Z,0.00
2023-12-18T00:14:52.753Z,0.00
2023-12-18T00:15:52.707Z,0.00
2023-12-18T00:16:52.689Z,0.00
2023-12-18T00:17:52.732Z,0.00
2023-12-18T00:18:52.818Z,0.00
2023-12-18T00:19:52.697Z,0.00
2023-12-18T00:20:52.694Z,0.00
2023-12-18T00:21:52.692Z,0.00
2023-12-18T00:22:52.663Z,0.00
2023-12-18T00:23:52.645Z,0.00
2023-12-18T00:24:52.646Z,0.00
2023-12-18T00:25:52.657Z,0.00
2023-12-18T00:26:52.657Z,0.00
2023-12-18T00:27:53.037Z,0.00
2023-12-18T00:28:52.624Z,0.00
2023-12-18T00:29:52.618Z,0.00
2023-12-18T00:30:52.679Z,0.00
2023-12-18T00:31:52.606Z,0.00
2023-12-18T00:32:52.639Z,0.00
2023-12-18T00:33:52.709Z,0.00
2023-12-18T00:34:52.743Z,0.00
2023-12-18T00:35:52.564Z,0.00
2023-12-18T00:36:52.561Z,0.00
2023-12-18T00:37:52.554Z,0.00
2023-12-18T00:38:52.547Z,0.00
2023-12-18T00:39:52.557Z,0.00
2023-12-18T00:40:52.548Z,0.00
2023-12-18T00:41:52.529Z,0.00
2023-12-18T00:42:52.543Z,0.00
2023-12-18T00:43:52.516Z,0.00
2023-12-18T00:44:52.533Z,0.00
2023-12-18T00:45:52.510Z,0.00
2023-12-18T00:46:52.502Z,0.00
2023-12-18T00:47:52.559Z,0.00
2023-12-18T00:48:52.594Z,0.00
2023-12-18T00:49:52.638Z,0.00
2023-12-18T00:50:52.506Z,0.00
2023-12-18T00:51:52.495Z,0.00
2023-12-18T00:52:52.459Z,0.00
2023-12-18T00:53:52.444Z,0.00
2023-12-18T00:54:52.449Z,0.00
2023-12-18T00:55:52.597Z,0.00
2023-12-18T00:56:52.438Z,0.00
2023-12-18T00:57:54.226Z,0.00
2023-12-18T00:58:53.421Z,0.00
2023-12-18T00:59:52.425Z,0.00
2023-12-18T01:00:52.499Z,0.00
2023-12-18T01:01:52.413Z,0.00
2023-12-18T01:02:52.433Z,0.00
2023-12-18T01:03:52.565Z,0.00
2023-12-18T01:04:52.452Z,0.00
2023-12-18T01:05:52.390Z,0.00
2023-12-18T01:06:52.367Z,0.00
2023-12-18T01:07:52.386Z,0.00
2023-12-18T01:08:52.365Z,0.00
2023-12-18T01:09:52.369Z,0.00
2023-12-18T01:10:52.354Z,0.00
2023-12-18T01:11:52.350Z,0.00
2023-12-18T01:12:52.366Z,0.00
2023-12-18T01:13:52.427Z,0.00
2023-12-18T01:14:52.323Z,0.00
2023-12-18T01:15:52.337Z,0.00
2023-12-18T01:16:52.319Z,0.00
2023-12-18T01:17:52.359Z,0.00
2023-12-18T01:18:52.411Z,0.00
2023-12-18T01:19:52.403Z,0.00
2023-12-18T01:20:52.281Z,0.00
2023-12-18T01:21:52.280Z,0.00
2023-12-18T01:23:01.916Z,0.00
2023-12-18T01:23:54.288Z,0.00
2023-12-18T01:24:52.265Z,0.00
2023-12-18T01:25:52.264Z,0.00
2023-12-18T01:26:52.245Z,0.00
2023-12-18T01:27:52.276Z,0.00
2023-12-18T01:28:52.571Z,0.00
2023-12-18T01:29:52.225Z,0.00
2023-12-18T01:30:52.320Z,0.00
2023-12-18T01:31:52.208Z,0.00
2023-12-18T01:32:52.266Z,0.00
2023-12-18T01:33:52.228Z,0.00
2023-12-18T01:34:52.199Z,0.00
2023-12-18T01:35:52.193Z,0.00
2023-12-18T01:36:52.177Z,0.00
2023-12-18T01:37:52.181Z,0.00
2023-12-18T01:38:52.154Z,0.00
2023-12-18T01:39:52.163Z,0.00
2023-12-18T01:40:52.180Z,0.00
2023-12-18T01:41:52.156Z,0.00
2023-12-18T01:42:52.140Z,0.00
2023-12-18T01:43:52.131Z,0.00
2023-12-18T01:44:52.117Z,0.00
2023-12-18T01:45:52.121Z,0.00
2023-12-18T01:46:52.144Z,0.00
2023-12-18T01:47:52.190Z,0.00
2023-12-18T01:48:52.309Z,0.00
2023-12-18T01:49:52.157Z,0.00
2023-12-18T01:50:52.073Z,0.00
2023-12-18T01:51:52.181Z,0.00
2023-12-18T01:52:52.070Z,0.00
2023-12-18T01:53:52.063Z,0.00
2023-12-18T01:54:52.066Z,0.00
2023-12-18T01:55:52.059Z,0.00
2023-12-18T01:56:52.051Z,0.00
2023-12-18T01:57:52.126Z,0.00
2023-12-18T01:58:52.040Z,0.00
2023-12-18T01:59:52.061Z,0.00
2023-12-18T02:00:52.084Z,0.00
2023-12-18T02:01:52.017Z,0.00
2023-12-18T02:02:52.013Z,0.00
2023-12-18T02:03:52.149Z,0.00
2023-12-18T02:04:52.038Z,0.00
2023-12-18T02:05:51.999Z,0.00
2023-12-18T02:06:51.992Z,0.00
2023-12-18T02:07:51.976Z,0.00
2023-12-18T02:08:51.957Z,0.00
2023-12-18T02:09:52.666Z,0.00
2023-12-18T02:10:51.964Z,0.00
2023-12-18T02:11:51.951Z,0.00
2023-12-18T02:12:51.983Z,0.00
2023-12-18T02:13:51.941Z,0.00
2023-12-18T02:14:51.917Z,0.00
2023-12-18T02:15:51.907Z,0.00
2023-12-18T02:16:51.904Z,0.00
2023-12-18T02:17:51.954Z,0.00
2023-12-18T02:18:52.045Z,0.00
2023-12-18T02:19:51.940Z,0.00
2023-12-18T02:20:51.957Z,0.00
2023-12-18T02:21:51.955Z,0.00
2023-12-18T02:22:52.012Z,0.00
2023-12-18T02:23:52.046Z,0.00
2023-12-18T02:24:51.894Z,0.00
2023-12-18T02:25:51.911Z,0.00
2023-12-18T02:26:51.889Z,0.00
2023-12-18T02:27:51.930Z,0.00
2023-12-18T02:28:51.952Z,0.00
2023-12-18T02:29:51.849Z,0.00
2023-12-18T02:30:51.921Z,0.00
2023-12-18T02:31:51.834Z,0.00
2023-12-18T02:32:51.872Z,0.00
2023-12-18T02:33:52.144Z,0.00
2023-12-18T02:34:52.040Z,0.00
2023-12-18T02:35:51.787Z,0.00
2023-12-18T02:36:51.770Z,0.00
2023-12-18T02:37:51.773Z,0.00
2023-12-18T02:38:51.765Z,0.00
2023-12-18T02:39:51.785Z,0.00
2023-12-18T02:40:51.739Z,0.00
2023-12-18T02:41:51.753Z,0.00
2023-12-18T02:42:51.823Z,0.00
2023-12-18T02:43:51.719Z,0.00
2023-12-18T02:44:51.771Z,0.00
2023-12-18T02:45:51.762Z,0.00
2023-12-18T02:46:51.688Z,0.00
2023-12-18T02:47:51.700Z,0.00
2023-12-18T02:48:51.802Z,0.00
2023-12-18T02:49:51.761Z,0.00
2023-12-18T02:50:51.677Z,0.00
2023-12-18T02:51:51.655Z,0.00
2023-12-18T02:52:51.657Z,0.00
2023-12-18T02:53:51.645Z,0.00
2023-12-18T02:54:51.655Z,0.00
2023-12-18T02:55:51.662Z,0.00
2023-12-18T02:56:51.637Z,0.00
2023-12-18T02:57:51.682Z,0.00
2023-12-18T02:58:51.651Z,0.00
2023-12-18T02:59:51.624Z,0.00
2023-12-18T03:00:51.858Z,0.00
2023-12-18T03:01:51.621Z,0.00
2023-12-18T03:02:51.621Z,0.00
2023-12-18T03:03:51.631Z,0.00
2023-12-18T03:04:51.611Z,0.00
2023-12-18T03:05:51.580Z,0.00
2023-12-18T03:06:51.576Z,0.00
2023-12-18T03:07:51.559Z,0.00
2023-12-18T03:08:51.569Z,0.00
2023-12-18T03:09:51.571Z,0.00
2023-12-18T03:10:51.550Z,0.00
2023-12-18T03:11:51.536Z,0.00
2023-12-18T03:12:51.526Z,0.00
2023-12-18T03:13:51.514Z,0.00
2023-12-18T03:14:51.531Z,0.00
2023-12-18T03:15:51.592Z,0.00
2023-12-18T03:16:51.500Z,0.00
2023-12-18T03:17:51.623Z,0.00
2023-12-18T03:18:51.623Z,0.00
2023-12-18T03:19:51.584Z,0.00
2023-12-18T03:20:51.475Z,0.00
2023-12-18T03:21:51.483Z,0.00
2023-12-18T03:22:51.463Z,0.00
2023-12-18T03:23:51.453Z,0.00
2023-12-18T03:24:51.587Z,0.00
2023-12-18T03:25:51.440Z,0.00
2023-12-18T03:26:51.433Z,0.00
2023-12-18T03:27:51.472Z,0.00
2023-12-18T03:28:51.424Z,0.00
2023-12-18T03:29:51.424Z,0.00
2023-12-18T03:30:51.480Z,0.00
2023-12-18T03:31:51.401Z,0.00
2023-12-18T03:32:51.434Z,0.00
2023-12-18T03:33:51.430Z,0.00
2023-12-18T03:34:51.408Z,0.00
2023-12-18T03:35:51.414Z,0.00
2023-12-18T03:36:51.365Z,0.00
2023-12-18T03:37:51.357Z,0.00
2023-12-18T03:38:51.355Z,0.00
2023-12-18T03:39:51.346Z,0.00
2023-12-18T03:40:52.114Z,0.00
2023-12-18T03:41:51.339Z,0.00
2023-12-18T03:42:51.329Z,0.00
2023-12-18T03:43:51.321Z,0.00
2023-12-18T03:44:51.318Z,0.00
2023-12-18T03:45:51.370Z,0.00
2023-12-18T03:46:51.329Z,0.00
2023-12-18T03:47:51.448Z,0.00
2023-12-18T03:48:52.459Z,0.00
2023-12-18T03:49:51.312Z,0.00
2023-12-18T03:50:51.285Z,0.00
2023-12-18T03:51:51.637Z,0.00
2023-12-18T03:52:51.270Z,0.00
2023-12-18T03:53:51.257Z,0.00
2023-12-18T03:54:51.285Z,0.00
2023-12-18T03:55:51.230Z,0.00
2023-12-18T03:56:51.246Z,0.00
2023-12-18T03:57:51.272Z,0.00
2023-12-18T03:58:51.248Z,0.00
2023-12-18T03:59:51.213Z,0.00
2023-12-18T04:00:51.287Z,0.00
2023-12-18T04:01:51.213Z,0.00
2023-12-18T04:02:51.208Z,0.00
2023-12-18T04:03:51.223Z,0.00
2023-12-18T04:04:51.271Z,0.00
2023-12-18T04:05:51.197Z,0.00
2023-12-18T04:06:51.164Z,0.00
2023-12-18T04:07:51.165Z,0.00
2023-12-18T04:08:51.144Z,0.00
2023-12-18T04:09:51.195Z,0.00
2023-12-18T04:10:51.130Z,0.00
2023-12-18T04:11:51.129Z,0.00
2023-12-18T04:12:51.179Z,0.00
2023-12-18T04:13:51.122Z,0.00
2023-12-18T04:14:51.105Z,0.00
2023-12-18T04:15:51.138Z,0.00
2023-12-18T04:16:51.102Z,0.00
2023-12-18T04:17:51.202Z,0.00
2023-12-18T04:18:51.245Z,0.00
2023-12-18T04:19:51.113Z,0.00
2023-12-18T04:20:51.076Z,0.00
2023-12-18T04:21:51.087Z,0.00
2023-12-18T04:22:51.050Z,0.00
2023-12-18T04:23:51.150Z,0.00
2023-12-18T04:24:51.080Z,0.00
2023-12-18T04:25:51.045Z,0.00
2023-12-18T04:26:51.036Z,0.00
2023-12-18T04:27:51.074Z,0.00
2023-12-18T04:28:51.028Z,0.00
2023-12-18T04:29:51.012Z,0.00
2023-12-18T04:30:51.237Z,0.00
2023-12-18T04:31:50.988Z,0.00
2023-12-18T04:32:52.265Z,0.00
2023-12-18T04:33:51.034Z,0.00
2023-12-18T04:34:51.034Z,0.00
2023-12-18T04:35:50.973Z,0.00
2023-12-18T04:36:51.038Z,0.00
2023-12-18T04:37:50.986Z,0.00
2023-12-18T04:38:50.985Z,0.00
2023-12-18T04:39:50.957Z,0.00
2023-12-18T04:40:50.935Z,0.00
2023-12-18T04:41:50.937Z,0.00
2023-12-18T04:42:50.927Z,0.00
2023-12-18T04:43:50.921Z,0.00
2023-12-18T04:44:50.931Z,0.00
2023-12-18T04:45:50.946Z,0.00
2023-12-18T04:46:50.893Z,0.00
2023-12-18T04:47:50.933Z,0.00
2023-12-18T04:48:51.046Z,0.00
2023-12-18T04:49:50.948Z,0.00
2023-12-18T04:50:50.874Z,0.00
2023-12-18T04:51:51.015Z,0.00
2023-12-18T04:52:50.856Z,0.00
2023-12-18T04:53:50.840Z,0.00
2023-12-18T04:54:50.894Z,0.00
2023-12-18T04:55:50.850Z,0.00
2023-12-18T04:56:50.837Z,0.00
2023-12-18T04:57:50.962Z,0.00
2023-12-18T04:58:50.808Z,0.00
2023-12-18T04:59:50.790Z,0.00
2023-12-18T05:00:50.981Z,0.00
2023-12-18T05:01:50.828Z,0.00
2023-12-18T05:02:50.813Z,0.00
2023-12-18T05:03:50.968Z,0.00
2023-12-18T05:04:50.903Z,0.00
2023-12-18T05:05:50.792Z,0.00
2023-12-18T05:06:50.797Z,0.00
2023-12-18T05:07:50.760Z,0.00
2023-12-18T05:08:50.751Z,0.00
2023-12-18T05:09:50.881Z,0.00
2023-12-18T05:10:50.748Z,0.00
2023-12-18T05:11:50.735Z,0.00
2023-12-18T05:12:50.810Z,0.00
2023-12-18T05:13:50.722Z,0.00
2023-12-18T05:14:50.705Z,0.00
2023-12-18T05:15:50.745Z,0.00
2023-12-18T05:16:50.697Z,0.00
2023-12-18T05:17:50.723Z,0.00
2023-12-18T05:18:50.901Z,0.00
2023-12-18T05:19:50.717Z,0.00
2023-12-18T05:20:50.668Z,0.00
2023-12-18T05:21:50.738Z,0.00
2023-12-18T05:22:50.673Z,0.00
2023-12-18T05:23:50.649Z,0.00
2023-12-18T05:24:50.714Z,0.00
2023-12-18T05:25:51.642Z,0.00
2023-12-18T05:26:50.647Z,0.00
2023-12-18T05:27:50.633Z,0.00
2023-12-18T05:28:50.619Z,0.00
2023-12-18T05:29:50.617Z,0.00
2023-12-18T05:30:50.683Z,0.00
2023-12-18T05:31:50.671Z,0.00
2023-12-18T05:32:50.638Z,0.00
2023-12-18T05:33:51.709Z,0.00
2023-12-18T05:34:50.767Z,0.00
2023-12-18T05:35:50.839Z,0.00
2023-12-18T05:36:50.658Z,0.00
2023-12-18T05:37:50.561Z,0.00
2023-12-18T05:38:50.552Z,0.00
2023-12-18T05:39:50.557Z,0.00
2023-12-18T05:40:50.570Z,0.00
2023-12-18T05:41:50.560Z,0.00
2023-12-18T05:42:50.576Z,0.00
2023-12-18T05:43:50.524Z,0.00
2023-12-18T05:44:50.511Z,0.00
2023-12-18T05:45:50.536Z,0.00
2023-12-18T05:46:50.513Z,0.00
2023-12-18T05:47:50.504Z,0.00
2023-12-18T05:48:50.626Z,0.00
2023-12-18T05:49:53.880Z,0.00
2023-12-18T05:50:51.487Z,0.00
2023-12-18T05:51:50.537Z,0.00
2023-12-18T05:52:50.463Z,0.00
2023-12-18T05:53:50.461Z,0.00
2023-12-18T05:54:50.551Z,0.00
2023-12-18T05:55:50.437Z,0.00
2023-12-18T05:56:50.441Z,0.00
2023-12-18T05:57:50.478Z,0.00
2023-12-18T05:58:50.427Z,0.00
2023-12-18T05:59:50.415Z,0.00
2023-12-18T06:00:50.448Z,0.00
2023-12-18T06:01:50.460Z,0.00
2023-12-18T06:02:50.406Z,0.00
2023-12-18T06:03:50.444Z,0.00
2023-12-18T06:04:50.443Z,0.00
2023-12-18T06:05:50.384Z,0.00
2023-12-18T06:06:50.414Z,0.00
2023-12-18T06:07:50.363Z,0.00
2023-12-18T06:08:50.356Z,0.00
2023-12-18T06:09:50.382Z,0.00
2023-12-18T06:10:50.347Z,0.00
2023-12-18T06:11:50.339Z,0.00
2023-12-18T06:12:50.356Z,0.00
2023-12-18T06:13:50.324Z,0.00
2023-12-18T06:14:50.303Z,0.00
2023-12-18T06:15:50.386Z,0.00
2023-12-18T06:16:50.316Z,0.00
2023-12-18T06:17:50.425Z,0.00
2023-12-18T06:18:51.410Z,0.00
2023-12-18T06:19:50.376Z,0.00
2023-12-18T06:20:50.266Z,0.00
2023-12-18T06:21:50.385Z,0.00
2023-12-18T06:22:50.276Z,0.00
2023-12-18T06:23:50.270Z,0.00
2023-12-18T06:24:50.299Z,0.00
2023-12-18T06:25:50.277Z,0.00
2023-12-18T06:26:50.283Z,0.00
2023-12-18T06:27:50.368Z,0.00
2023-12-18T06:28:50.235Z,0.00
2023-12-18T06:29:50.215Z,0.00
2023-12-18T06:30:50.270Z,0.00
2023-12-18T06:31:50.248Z,0.00
2023-12-18T06:32:50.512Z,0.00
2023-12-18T06:33:50.412Z,0.00
2023-12-18T06:34:50.296Z,0.00
2023-12-18T06:35:50.181Z,0.00
2023-12-18T06:36:50.161Z,0.00
2023-12-18T06:37:50.165Z,0.00
2023-12-18T06:38:50.170Z,0.00
2023-12-18T06:39:50.153Z,0.00
2023-12-18T06:40:50.142Z,0.00
2023-12-18T06:41:50.135Z,0.00
2023-12-18T06:42:50.145Z,0.00
2023-12-18T06:43:50.115Z,0.00
2023-12-18T06:44:50.129Z,0.00
2023-12-18T06:45:50.205Z,0.00
2023-12-18T06:46:50.095Z,0.00
2023-12-18T06:47:50.146Z,0.00
2023-12-18T06:48:50.187Z,0.00
2023-12-18T06:49:50.104Z,0.00
2023-12-18T06:50:50.074Z,0.00
2023-12-18T06:51:50.098Z,0.00
2023-12-18T06:52:50.055Z,0.00
2023-12-18T06:53:50.053Z,0.00
2023-12-18T06:54:50.101Z,0.00
2023-12-18T06:55:51.036Z,0.00
2023-12-18T06:56:50.066Z,0.00
2023-12-18T06:57:50.100Z,0.00
2023-12-18T06:58:50.034Z,0.00
2023-12-18T06:59:50.030Z,0.00
2023-12-18T07:00:50.110Z,0.00
2023-12-18T07:01:50.041Z,0.00
2023-12-18T07:02:50.005Z,0.00
2023-12-18T07:03:50.081Z,0.00
2023-12-18T07:04:50.040Z,0.00
2023-12-18T07:05:50.022Z,0.00
2023-12-18T07:06:49.994Z,0.00
2023-12-18T07:07:49.962Z,0.00
2023-12-18T07:08:49.972Z,0.00
2023-12-18T07:09:50.000Z,0.00
2023-12-18T07:10:49.947Z,0.00
2023-12-18T07:11:49.943Z,0.00
2023-12-18T07:12:49.955Z,0.00
2023-12-18T07:13:50.000Z,0.00
2023-12-18T07:14:49.908Z,0.00
2023-12-18T07:15:49.939Z,0.00
2023-12-18T07:16:49.912Z,0.00
2023-12-18T07:17:49.945Z,0.00
2023-12-18T07:18:50.012Z,0.00
2023-12-18T07:19:49.877Z,0.00
2023-12-18T07:20:49.938Z,0.00
2023-12-18T07:21:49.920Z,0.00
2023-12-18T07:22:49.847Z,0.00
2023-12-18T07:23:49.842Z,0.00
2023-12-18T07:24:49.928Z,0.00
2023-12-18T07:25:49.830Z,0.00
2023-12-18T07:26:49.815Z,0.00
2023-12-18T07:27:49.883Z,0.00
2023-12-18T07:28:49.802Z,0.00
2023-12-18T07:29:49.825Z,5.62
2023-12-18T07:30:49.861Z,5.62
2023-12-18T07:31:49.818Z,5.62
2023-12-18T07:32:49.864Z,5.62
2023-12-18T07:33:49.852Z,5.62
2023-12-18T07:34:49.866Z,5.62
2023-12-18T07:35:49.776Z,5.62
2023-12-18T07:36:49.905Z,5.62
2023-12-18T07:37:49.773Z,5.62
2023-12-18T07:38:49.740Z,5.62
2023-12-18T07:39:49.807Z,11.25
2023-12-18T07:40:49.763Z,11.25
2023-12-18T07:41:49.735Z,11.25
2023-12-18T07:42:49.785Z,11.25
2023-12-18T07:43:49.768Z,11.25
2023-12-18T07:44:49.707Z,11.25
2023-12-18T07:45:49.828Z,11.25
2023-12-18T07:46:49.716Z,11.25
2023-12-18T07:47:49.810Z,11.25
2023-12-18T07:48:50.047Z,11.25
2023-12-18T07:49:51.055Z,11.25
2023-12-18T07:50:50.676Z,11.25
2023-12-18T07:51:49.734Z,11.25
2023-12-18T07:52:49.642Z,11.25
2023-12-18T07:53:49.827Z,11.25
2023-12-18T07:54:49.675Z,11.25
2023-12-18T07:55:51.169Z,16.88
2023-12-18T07:56:49.623Z,16.88
2023-12-18T07:57:49.663Z,16.88
2023-12-18T07:58:49.625Z,16.88
2023-12-18T07:59:49.611Z,16.88
2023-12-18T08:00:49.665Z,16.88
2023-12-18T08:01:49.625Z,11.25
2023-12-18T08:02:49.697Z,11.25
2023-12-18T08:03:49.705Z,11.25
2023-12-18T08:04:49.589Z,16.88
2023-12-18T08:05:49.573Z,16.88
2023-12-18T08:06:49.594Z,16.88
2023-12-18T08:07:49.557Z,16.88
2023-12-18T08:08:49.614Z,16.88
2023-12-18T08:09:49.625Z,16.88
2023-12-18T08:10:49.539Z,16.88
2023-12-18T08:11:49.570Z,16.88
2023-12-18T08:12:49.591Z,22.50
2023-12-18T08:13:49.498Z,22.50
2023-12-18T08:14:49.518Z,22.50
2023-12-18T08:15:49.521Z,22.50
2023-12-18T08:16:50.520Z,22.50
2023-12-18T08:17:49.556Z,22.50
2023-12-18T08:18:49.629Z,22.50
2023-12-18T08:19:49.553Z,22.50
2023-12-18T08:20:49.457Z,28.12
2023-12-18T08:21:49.707Z,28.12
2023-12-18T08:22:49.449Z,28.12
2023-12-18T08:23:49.479Z,28.12
2023-12-18T08:24:49.481Z,28.12
2023-12-18T08:25:49.446Z,28.12
2023-12-18T08:26:49.467Z,33.75
2023-12-18T08:27:49.550Z,33.75
2023-12-18T08:28:49.445Z,33.75
2023-12-18T08:29:49.406Z,33.75
2023-12-18T08:30:49.513Z,33.75
2023-12-18T08:31:49.403Z,33.75
2023-12-18T08:32:49.389Z,39.38
2023-12-18T08:33:49.425Z,33.75
2023-12-18T08:34:49.517Z,33.75
2023-12-18T08:35:49.366Z,39.38
2023-12-18T08:36:49.421Z,39.38
2023-12-18T08:37:49.351Z,45.00
2023-12-18T08:38:50.030Z,39.38
2023-12-18T08:39:49.459Z,39.38
2023-12-18T08:40:50.425Z,39.38
2023-12-18T08:41:49.321Z,39.38
2023-12-18T08:42:49.337Z,39.38
2023-12-18T08:43:58.243Z,39.38
2023-12-18T08:44:51.323Z,45.00
2023-12-18T08:45:49.436Z,45.00
2023-12-18T08:46:49.289Z,45.00
2023-12-18T08:47:49.468Z,39.38
2023-12-18T08:48:49.429Z,45.00
2023-12-18T08:49:49.273Z,39.38
2023-12-18T08:50:49.876Z,45.00
2023-12-18T08:51:49.293Z,45.00
2023-12-18T08:52:49.254Z,50.62
2023-12-18T08:53:49.963Z,50.62
2023-12-18T08:54:49.312Z,50.62
2023-12-18T08:55:49.292Z,50.62
2023-12-18T08:56:49.230Z,45.00
2023-12-18T08:57:49.235Z,39.38
2023-12-18T08:58:49.227Z,39.38
2023-12-18T08:59:49.190Z,45.00
2023-12-18T09:00:49.274Z,50.62
2023-12-18T09:01:49.179Z,56.25
2023-12-18T09:02:49.249Z,50.62
2023-12-18T09:03:49.354Z,45.00
2023-12-18T09:04:49.277Z,45.00
2023-12-18T09:05:49.202Z,45.00
2023-12-18T09:06:49.152Z,45.00
2023-12-18T09:07:49.171Z,45.00
2023-12-18T09:08:49.172Z,50.62
2023-12-18T09:09:49.231Z,45.00
2023-12-18T09:10:49.122Z,50.62
2023-12-18T09:11:49.122Z,50.62
2023-12-18T09:12:49.253Z,56.25
2023-12-18T09:13:49.114Z,56.25
2023-12-18T09:14:49.192Z,56.25
2023-12-18T09:15:49.204Z,61.88
2023-12-18T09:16:49.086Z,67.50
2023-12-18T09:17:49.096Z,67.50
2023-12-18T09:18:50.047Z,67.50
2023-12-18T09:19:49.150Z,78.75
2023-12-18T09:20:49.071Z,78.75
2023-12-18T09:21:49.144Z,67.50
2023-12-18T09:22:49.047Z,67.50
2023-12-18T09:23:49.039Z,61.88
2023-12-18T09:24:49.172Z,61.88
2023-12-18T09:25:49.040Z,61.88
2023-12-18T09:26:49.026Z,67.50
2023-12-18T09:27:49.064Z,78.75
2023-12-18T09:28:49.134Z,84.38
2023-12-18T09:29:49.047Z,84.38
2023-12-18T09:30:49.056Z,90.00
2023-12-18T09:31:49.153Z,84.38
2023-12-18T09:32:49.270Z,78.75
2023-12-18T09:33:49.257Z,78.75
2023-12-18T09:34:49.265Z,84.38
2023-12-18T09:35:48.965Z,84.38
2023-12-18T09:36:49.095Z,90.00
2023-12-18T09:37:48.932Z,84.38
2023-12-18T09:38:48.966Z,84.38
2023-12-18T09:39:49.026Z,84.38
2023-12-18T09:40:48.939Z,101.25
2023-12-18T09:41:48.915Z,106.88
2023-12-18T09:42:48.939Z,84.38
2023-12-18T09:43:48.917Z,106.88
2023-12-18T09:44:48.902Z,129.38
2023-12-18T09:45:48.932Z,84.38
2023-12-18T09:46:48.880Z,73.12
2023-12-18T09:47:48.963Z,78.75
2023-12-18T09:48:48.945Z,84.38
2023-12-18T09:49:48.953Z,84.38
2023-12-18T09:50:48.861Z,73.12
2023-12-18T09:51:48.910Z,78.75
2023-12-18T09:52:48.853Z,78.75
2023-12-18T09:53:48.861Z,73.12
2023-12-18T09:54:48.842Z,73.12
2023-12-18T09:55:48.825Z,78.75
2023-12-18T09:56:48.800Z,78.75
2023-12-18T09:57:48.824Z,73.12
2023-12-18T09:58:48.800Z,78.75
2023-12-18T09:59:48.803Z,67.50
2023-12-18T10:00:49.101Z,73.12
2023-12-18T10:01:48.840Z,67.50
2023-12-18T10:02:48.778Z,73.12
2023-12-18T10:03:48.819Z,84.38
2023-12-18T10:04:48.781Z,84.38
2023-12-18T10:05:49.955Z,90.00
2023-12-18T10:06:48.814Z,90.00
2023-12-18T10:07:48.889Z,95.62
2023-12-18T10:08:48.723Z,78.75
2023-12-18T10:09:48.801Z,84.38
2023-12-18T10:10:48.738Z,101.25
2023-12-18T10:11:50.641Z,106.88
2023-12-18T10:12:48.912Z,95.62
2023-12-18T10:13:48.694Z,84.38
2023-12-18T10:14:48.693Z,90.00
2023-12-18T10:15:48.714Z,84.38
2023-12-18T10:16:48.671Z,95.62
2023-12-18T10:17:48.686Z,78.75
2023-12-18T10:18:48.786Z,84.38
2023-12-18T10:19:48.696Z,90.00
2023-12-18T10:20:48.638Z,84.38
2023-12-18T10:21:48.681Z,78.75
2023-12-18T10:22:49.373Z,84.38
2023-12-18T10:23:48.621Z,101.25
2023-12-18T10:24:48.692Z,118.12
2023-12-18T10:25:48.639Z,101.25
2023-12-18T10:26:48.620Z,146.25
2023-12-18T10:27:48.793Z,118.12
2023-12-18T10:28:48.590Z,118.12
2023-12-18T10:29:48.579Z,101.25
2023-12-18T10:30:48.660Z,112.50
2023-12-18T10:31:48.741Z,90.00
2023-12-18T10:32:48.658Z,84.38
2023-12-18T10:33:48.750Z,90.00
2023-12-18T10:34:48.610Z,84.38
2023-12-18T10:35:48.570Z,78.75
2023-12-18T10:36:48.655Z,84.38
2023-12-18T10:37:48.564Z,84.38
2023-12-18T10:38:48.534Z,84.38
2023-12-18T10:39:48.584Z,90.00
2023-12-18T10:40:48.531Z,90.00
2023-12-18T10:41:48.500Z,84.38
2023-12-18T10:42:48.527Z,106.88
2023-12-18T10:43:48.481Z,112.50
2023-12-18T10:44:48.481Z,106.88
2023-12-18T10:45:48.550Z,118.12
2023-12-18T10:46:48.469Z,106.88
2023-12-18T10:47:48.498Z,123.75
2023-12-18T10:48:48.480Z,129.38
2023-12-18T10:49:48.554Z,140.62
2023-12-18T10:50:48.468Z,140.62
2023-12-18T10:51:48.468Z,163.12
2023-12-18T10:52:48.441Z,168.75
2023-12-18T10:53:48.422Z,191.25
2023-12-18T10:54:48.489Z,163.12
2023-12-18T10:55:48.426Z,163.12
2023-12-18T10:56:48.399Z,174.38
2023-12-18T10:57:48.385Z,174.38
2023-12-18T10:58:48.400Z,202.50
2023-12-18T10:59:48.392Z,247.50
2023-12-18T11:00:48.458Z,219.38
2023-12-18T11:01:48.350Z,180.00
2023-12-18T11:02:48.370Z,185.62
2023-12-18T11:03:48.539Z,163.12
2023-12-18T11:04:48.337Z,168.75
2023-12-18T11:05:48.365Z,163.12
2023-12-18T11:06:48.338Z,185.62
2023-12-18T11:07:48.314Z,208.12
2023-12-18T11:08:48.340Z,208.12
2023-12-18T11:09:48.362Z,196.88
2023-12-18T11:10:48.436Z,180.00
2023-12-18T11:11:48.278Z,208.12
2023-12-18T11:12:48.414Z,219.38
2023-12-18T11:13:48.294Z,247.50
2023-12-18T11:14:48.384Z,213.75
2023-12-18T11:15:48.307Z,253.12
2023-12-18T11:16:48.258Z,303.75
2023-12-18T11:17:48.382Z,382.50
2023-12-18T11:18:48.494Z,438.75
2023-12-18T11:19:48.260Z,315.00
2023-12-18T11:20:48.236Z,264.38
2023-12-18T11:21:48.235Z,450.00
2023-12-18T11:22:48.212Z,658.12
2023-12-18T11:23:50.537Z,303.75
2023-12-18T11:24:49.301Z,241.88
2023-12-18T11:25:49.252Z,405.00
2023-12-18T11:26:48.190Z,241.88
2023-12-18T11:27:48.282Z,230.62
2023-12-18T11:28:49.203Z,241.88
2023-12-18T11:29:48.167Z,247.50
2023-12-18T11:30:48.407Z,343.12
2023-12-18T11:31:48.245Z,506.25
2023-12-18T11:32:48.224Z,1828.12
2023-12-18T11:33:49.204Z,416.25
2023-12-18T11:34:49.222Z,354.38
2023-12-18T11:35:49.150Z,320.62
2023-12-18T11:36:48.171Z,343.12
2023-12-18T11:37:48.137Z,376.88
2023-12-18T11:38:48.106Z,320.62
2023-12-18T11:39:48.129Z,326.25
2023-12-18T11:40:48.094Z,360.00
2023-12-18T11:41:48.088Z,393.75
2023-12-18T11:42:48.154Z,506.25
2023-12-18T11:43:48.084Z,371.25
2023-12-18T11:44:48.090Z,517.50
2023-12-18T11:45:48.136Z,1001.25
2023-12-18T11:46:48.064Z,725.62
2023-12-18T11:47:48.085Z,500.62
2023-12-18T11:48:48.325Z,416.25
2023-12-18T11:49:48.426Z,556.88
2023-12-18T11:50:48.094Z,405.00
2023-12-18T11:51:48.040Z,832.50
2023-12-18T11:52:48.034Z,489.38
2023-12-18T11:53:48.005Z,1395.00
2023-12-18T11:54:48.072Z,680.62
2023-12-18T11:55:48.344Z,1895.62
2023-12-18T11:56:48.008Z,838.12
2023-12-18T11:57:48.002Z,708.75
2023-12-18T11:58:47.997Z,495.00
2023-12-18T11:59:47.970Z,978.75
2023-12-18T12:00:47.988Z,1974.38
2023-12-18T12:01:47.960Z,1794.38
2023-12-18T12:02:47.938Z,1755.00
2023-12-18T12:03:48.054Z,483.75
2023-12-18T12:04:48.088Z,433.12
2023-12-18T12:05:47.998Z,506.25
2023-12-18T12:06:48.013Z,410.62
2023-12-18T12:07:47.905Z,652.50
2023-12-18T12:08:47.942Z,641.25
2023-12-18T12:09:47.919Z,562.50
2023-12-18T12:10:47.896Z,748.12
2023-12-18T12:11:47.912Z,1800.00
2023-12-18T12:12:47.883Z,1125.00
2023-12-18T12:13:48.887Z,770.62
2023-12-18T12:14:47.854Z,1451.25
2023-12-18T12:15:47.876Z,1417.50
2023-12-18T12:16:47.832Z,1417.50
2023-12-18T12:17:48.185Z,1749.38
2023-12-18T12:18:48.239Z,1170.00
2023-12-18T12:19:47.886Z,1546.88
2023-12-18T12:20:47.861Z,1091.25
2023-12-18T12:21:48.489Z,1338.75
2023-12-18T12:22:47.872Z,1260.00
2023-12-18T12:23:47.815Z,1046.25
2023-12-18T12:24:47.830Z,1288.12
2023-12-18T12:25:47.793Z,1423.12
2023-12-18T12:26:47.967Z,978.75
2023-12-18T12:27:47.819Z,1738.12
2023-12-18T12:28:47.826Z,1558.12
2023-12-18T12:29:47.790Z,1546.88
2023-12-18T12:30:47.813Z,590.62
2023-12-18T12:31:53.882Z,506.25
2023-12-18T12:32:49.869Z,1485.00
2023-12-18T12:33:47.855Z,1552.50
2023-12-18T12:34:47.817Z,1406.25
2023-12-18T12:35:47.749Z,630.00
2023-12-18T12:36:47.757Z,551.25
2023-12-18T12:37:47.699Z,877.50
2023-12-18T12:38:47.696Z,1327.50
2023-12-18T12:39:47.706Z,388.12
2023-12-18T12:40:47.691Z,315.00
2023-12-18T12:41:47.670Z,298.12
2023-12-18T12:42:47.674Z,326.25
2023-12-18T12:43:47.684Z,309.38
2023-12-18T12:44:47.654Z,371.25
2023-12-18T12:45:47.654Z,1023.75
2023-12-18T12:46:47.645Z,590.62
2023-12-18T12:47:47.972Z,1299.38
2023-12-18T12:48:47.742Z,748.12
2023-12-18T12:49:47.703Z,534.38
2023-12-18T12:50:47.618Z,961.88
2023-12-18T12:51:47.660Z,1237.50
2023-12-18T12:52:47.688Z,1440.00
2023-12-18T12:53:47.606Z,1276.88
2023-12-18T12:54:47.643Z,1327.50
2023-12-18T12:55:47.600Z,1344.38
2023-12-18T12:56:47.574Z,1406.25
2023-12-18T12:57:47.611Z,961.88
2023-12-18T12:58:47.575Z,933.75
2023-12-18T12:59:47.550Z,433.12
2023-12-18T13:00:47.633Z,1310.62
2023-12-18T13:01:47.648Z,714.38